Despina — SVDK — position and weather

sailwx.info

Track history (hours):
 
Tides and Currents Weather Stations Pressure Air Temp Water Temp Dewpoint Dewpoint Depression Visibility Wind Speed Wind Dir Waves Ship Positions

Despina

Last reported at 2014-Sep-20 08:17 UTC. Time now 2014-Oct-01 06:08 UTC.
Position N 36°00' W 005°29'.
Warning: this ship's position is 10 days out of date.

Length 225 m; draft 8.6 m.

Type: Cargo ship. MMSI: 239469000.

Date/timePositionNaut miles runAvg speedWind from/ knotsBaromVisibWave heightAir tempDewpointWater temp
2014-Sep-20 08:17N 36°00' W 005°29'234 7.4
2014-Sep-19 00:33N 36°41' W 000°43'1312.8
2014-Sep-18 23:33N 36°44' W 000°27'1312.6
2014-Sep-18 22:33N 36°46' W 000°12'1312.7
2014-Sep-18 21:34N 36°49' E 000°04'1313.0
2014-Sep-18 20:33N 36°52' E 000°19'1313.2
2014-Sep-18 19:33N 36°55' E 000°36'1513.2
2014-Sep-18 18:25N 36°58' E 000°54'1112.8
2014-Sep-18 17:32N 37°00' E 001°08'1212.4
2014-Sep-18 16:33N 37°03' E 001°23'1312.6
2014-Sep-18 15:34N 37°06' E 001°38'1412.7
2014-Sep-18 14:28N 37°08' E 001°55'3812.2
2014-Sep-18 11:20N 37°17' E 002°42'6413.0
2014-Sep-18 06:27N 37°30' E 004°00'15013.5
2014-Sep-17 19:22N 37°47' E 007°08'1314.6
2014-Sep-17 18:29N 37°48' E 007°24'1512.8
2014-Sep-17 17:18N 37°50' E 007°43'1413.5
2014-Sep-17 16:17N 37°52' E 008°00'1013.5
2014-Sep-17 15:32N 37°53' E 008°13'1313.4
2014-Sep-17 14:33N 37°55' E 008°30'1313.2
2014-Sep-17 13:33N 37°56' E 008°47'1313.4
2014-Sep-17 12:33N 37°58' E 009°03'1413.9
2014-Sep-17 11:33N 37°59' E 009°21'1513.5
2014-Sep-17 10:29N 37°57' E 009°39'1514.0
2014-Sep-17 09:25N 37°53' E 009°57'1213.7
2014-Sep-17 08:32N 37°49' E 010°12'1713.1
2014-Sep-17 07:12N 37°43' E 010°32'1314.2
2014-Sep-17 06:18N 37°38' E 010°47'1013.4
2014-Sep-17 05:33N 37°35' E 010°59'10813.4
2014-Sep-16 21:30N 36°59' E 013°08'1313.4
2014-Sep-16 20:33N 36°55' E 013°23'1313.3
2014-Sep-16 19:33N 36°50' E 013°38'1212.3
2014-Sep-16 18:33N 36°46' E 013°53'1212.0
2014-Sep-16 17:33N 36°42' E 014°07'1313.0
2014-Sep-16 16:33N 36°38' E 014°22'1313.3
2014-Sep-16 15:33N 36°35' E 014°39'1313.3
2014-Sep-16 14:33N 36°34' E 014°55'  
Track history (hours):
 
Tides and Currents Weather Stations Pressure Air Temp Water Temp Dewpoint Dewpoint Depression Visibility Wind Speed Wind Dir Waves Ship Positions

Despina

Last reported at 2014-Sep-20 08:17 UTC. Time now 2014-Oct-01 06:08 UTC.
Position N 36°00' W 005°29'.
Warning: this ship's position is 10 days out of date.

Length 225 m; draft 8.6 m.

Type: Cargo ship. MMSI: 239469000.

Date/timePositionNaut miles runAvg speedWind from/ knotsBaromVisibWave heightAir tempDewpointWater temp
2014-Sep-20 08:17N 36°00' W 005°29'234 7.4
2014-Sep-19 00:33N 36°41' W 000°43'1312.8
2014-Sep-18 23:33N 36°44' W 000°27'1312.6
2014-Sep-18 22:33N 36°46' W 000°12'1312.7
2014-Sep-18 21:34N 36°49' E 000°04'1313.0
2014-Sep-18 20:33N 36°52' E 000°19'1313.2
2014-Sep-18 19:33N 36°55' E 000°36'1513.2
2014-Sep-18 18:25N 36°58' E 000°54'1112.8
2014-Sep-18 17:32N 37°00' E 001°08'1212.4
2014-Sep-18 16:33N 37°03' E 001°23'1312.6
2014-Sep-18 15:34N 37°06' E 001°38'1412.7
2014-Sep-18 14:28N 37°08' E 001°55'3812.2
2014-Sep-18 11:20N 37°17' E 002°42'6413.0
2014-Sep-18 06:27N 37°30' E 004°00'15013.5
2014-Sep-17 19:22N 37°47' E 007°08'1314.6
2014-Sep-17 18:29N 37°48' E 007°24'1512.8
2014-Sep-17 17:18N 37°50' E 007°43'1413.5
2014-Sep-17 16:17N 37°52' E 008°00'1013.5
2014-Sep-17 15:32N 37°53' E 008°13'1313.4
2014-Sep-17 14:33N 37°55' E 008°30'1313.2
2014-Sep-17 13:33N 37°56' E 008°47'1313.4
2014-Sep-17 12:33N 37°58' E 009°03'1413.9
2014-Sep-17 11:33N 37°59' E 009°21'1513.5
2014-Sep-17 10:29N 37°57' E 009°39'1514.0
2014-Sep-17 09:25N 37°53' E 009°57'1213.7
2014-Sep-17 08:32N 37°49' E 010°12'1713.1
2014-Sep-17 07:12N 37°43' E 010°32'1314.2
2014-Sep-17 06:18N 37°38' E 010°47'1013.4
2014-Sep-17 05:33N 37°35' E 010°59'10813.4
2014-Sep-16 21:30N 36°59' E 013°08'1313.4
2014-Sep-16 20:33N 36°55' E 013°23'1313.3
2014-Sep-16 19:33N 36°50' E 013°38'1212.3
2014-Sep-16 18:33N 36°46' E 013°53'1212.0
2014-Sep-16 17:33N 36°42' E 014°07'1313.0
2014-Sep-16 16:33N 36°38' E 014°22'1313.3
2014-Sep-16 15:33N 36°35' E 014°39'1313.3
2014-Sep-16 14:33N 36°34' E 014°55'  

Dump ship's entire track history